createdAt,value
2019-02-16T00:00:24.973Z,15.89
2019-02-16T00:01:30.580Z,15.64
2019-02-16T00:02:35.517Z,15.63
2019-02-16T00:03:40.793Z,15.31
2019-02-16T00:04:46.042Z,15.11
2019-02-16T00:05:51.346Z,15.38
2019-02-16T00:06:56.588Z,15.54
2019-02-16T00:08:01.284Z,15.16
2019-02-16T00:09:06.295Z,15.57
2019-02-16T00:10:11.282Z,15.65
2019-02-16T00:11:16.529Z,15.52
2019-02-16T00:12:21.476Z,15.77
2019-02-16T00:13:26.769Z,15.16
2019-02-16T00:14:33.597Z,15.41
2019-02-16T00:15:38.613Z,15.68
2019-02-16T00:16:43.308Z,15.64
2019-02-16T00:17:53.581Z,15.45
2019-02-16T00:18:59.547Z,15.61
2019-02-16T00:20:04.239Z,15.58
2019-02-16T00:21:09.212Z,15.39
2019-02-16T00:22:14.746Z,15.57
2019-02-16T00:23:20.063Z,15.52
2019-02-16T00:24:25.014Z,15.36
2019-02-16T00:25:29.976Z,15.38
2019-02-16T00:26:35.991Z,15.55
2019-02-16T00:27:40.972Z,15.69
2019-02-16T00:28:46.234Z,15.86
2019-02-16T00:29:51.227Z,16.07
2019-02-16T00:30:56.240Z,15.37
2019-02-16T00:32:00.929Z,15.46
2019-02-16T00:33:05.901Z,15.43
2019-02-16T00:34:11.983Z,15.41
2019-02-16T00:35:17.213Z,15.73
2019-02-16T00:36:22.211Z,15.92
2019-02-16T00:37:27.485Z,15.66
2019-02-16T00:38:31.925Z,15.66
2019-02-16T00:39:36.619Z,15.57
2019-02-16T00:40:41.835Z,15.18
2019-02-16T00:41:47.090Z,15.50
2019-02-16T00:42:56.203Z,15.71
2019-02-16T00:44:02.328Z,15.62
2019-02-16T00:45:07.034Z,15.36
2019-02-16T00:46:12.059Z,14.71
2019-02-16T00:47:16.798Z,15.59
2019-02-16T00:48:24.463Z,15.52
2019-02-16T00:49:29.623Z,14.97
2019-02-16T00:50:34.591Z,14.86
2019-02-16T00:51:39.850Z,15.17
2019-02-16T00:52:44.863Z,15.38
2019-02-16T00:53:49.589Z,15.63
2019-02-16T00:54:54.821Z,14.78
2019-02-16T00:56:00.218Z,15.36
2019-02-16T00:57:04.835Z,15.34
2019-02-16T00:58:11.391Z,15.37
2019-02-16T00:59:16.298Z,15.46
2019-02-16T01:00:21.311Z,15.49
2019-02-16T01:01:25.992Z,15.37
2019-02-16T01:02:30.967Z,15.28
2019-02-16T01:03:36.236Z,15.14
2019-02-16T01:04:41.205Z,15.47
2019-02-16T01:05:50.614Z,15.46
2019-02-16T01:06:55.292Z,15.49
2019-02-16T01:08:00.055Z,15.27
2019-02-16T01:09:05.449Z,15.42
2019-02-16T01:10:12.363Z,15.05
2019-02-16T01:11:17.051Z,14.76
2019-02-16T01:12:22.326Z,15.38
2019-02-16T01:13:30.414Z,15.31
2019-02-16T01:14:35.679Z,15.14
2019-02-16T01:15:40.741Z,14.98
2019-02-16T01:16:47.691Z,14.88
2019-02-16T01:17:53.282Z,15.32
2019-02-16T01:18:58.281Z,15.08
2019-02-16T01:20:02.969Z,14.60
2019-02-16T01:21:07.990Z,15.17
2019-02-16T01:22:12.976Z,15.06
2019-02-16T01:23:17.984Z,15.25
2019-02-16T01:24:22.993Z,15.07
2019-02-16T01:25:28.527Z,15.27
2019-02-16T01:26:33.755Z,15.29
2019-02-16T01:27:38.730Z,15.20
2019-02-16T01:28:48.061Z,15.26
2019-02-16T01:29:52.727Z,15.15
2019-02-16T01:30:57.736Z,14.92
2019-02-16T01:32:02.989Z,15.17
2019-02-16T01:33:07.720Z,14.85
2019-02-16T01:34:13.267Z,14.96
2019-02-16T01:35:18.995Z,14.75
2019-02-16T01:36:23.751Z,15.19
2019-02-16T01:37:28.448Z,15.20
2019-02-16T01:38:34.898Z,14.51
2019-02-16T01:39:54.620Z,14.86
2019-02-16T01:40:59.845Z,14.63
2019-02-16T01:42:04.527Z,14.92
2019-02-16T01:43:12.851Z,14.48
2019-02-16T01:44:20.414Z,14.84
2019-02-16T01:45:25.368Z,14.82
2019-02-16T01:46:30.102Z,14.92
2019-02-16T01:47:35.665Z,14.85
2019-02-16T01:48:40.957Z,14.56
2019-02-16T01:49:45.926Z,14.70
2019-02-16T01:50:51.644Z,14.55
2019-02-16T01:51:57.403Z,14.63
2019-02-16T01:53:04.212Z,14.70
2019-02-16T01:54:09.075Z,14.85
2019-02-16T01:55:14.330Z,14.74
2019-02-16T01:56:20.490Z,14.34
2019-02-16T01:57:25.163Z,14.60
2019-02-16T01:58:30.526Z,14.91
2019-02-16T01:59:40.820Z,14.85
2019-02-16T02:00:50.002Z,14.90
2019-02-16T02:01:54.972Z,14.86
2019-02-16T02:03:00.250Z,15.10
2019-02-16T02:04:05.239Z,14.92
2019-02-16T02:05:09.773Z,14.49
2019-02-16T02:06:14.829Z,15.00
2019-02-16T02:07:20.028Z,14.98
2019-02-16T02:08:44.214Z,14.63
2019-02-16T02:09:49.167Z,15.04
2019-02-16T02:10:54.426Z,15.12
2019-02-16T02:11:59.680Z,14.97
2019-02-16T02:13:04.684Z,15.19
2019-02-16T02:14:18.891Z,15.17
2019-02-16T02:15:27.075Z,15.03
2019-02-16T02:16:33.646Z,15.12
2019-02-16T02:17:38.274Z,14.94
2019-02-16T02:18:45.459Z,14.92
2019-02-16T02:19:52.053Z,14.45
2019-02-16T02:20:57.049Z,14.98
2019-02-16T02:22:02.059Z,15.12
2019-02-16T02:23:06.841Z,15.16
2019-02-16T02:24:14.825Z,14.84
2019-02-16T02:25:19.809Z,14.69
2019-02-16T02:26:25.094Z,14.41
2019-02-16T02:27:30.065Z,14.55
2019-02-16T02:28:36.411Z,14.57
2019-02-16T02:29:42.890Z,14.45
2019-02-16T02:30:47.550Z,14.81
2019-02-16T02:31:52.578Z,14.30
2019-02-16T02:32:57.839Z,14.46
2019-02-16T02:34:04.795Z,14.32
2019-02-16T02:35:09.493Z,14.64
2019-02-16T02:36:14.302Z,14.12
2019-02-16T02:37:21.182Z,14.62
2019-02-16T02:38:26.141Z,14.44
2019-02-16T02:39:31.128Z,14.09
2019-02-16T02:40:36.093Z,14.28
2019-02-16T02:41:42.331Z,14.64
2019-02-16T02:42:47.125Z,14.66
2019-02-16T02:43:52.175Z,14.76
2019-02-16T02:44:56.864Z,14.49
2019-02-16T02:46:02.146Z,14.39
2019-02-16T02:47:07.719Z,14.53
2019-02-16T02:48:12.814Z,14.11
2019-02-16T02:49:17.830Z,14.80
2019-02-16T02:50:24.650Z,14.45
2019-02-16T02:51:29.316Z,14.55
2019-02-16T02:52:34.065Z,14.63
2019-02-16T02:53:39.333Z,14.89
2019-02-16T02:54:45.490Z,14.90
2019-02-16T02:55:52.613Z,15.03
2019-02-16T02:56:58.362Z,14.34
2019-02-16T02:58:05.151Z,14.45
2019-02-16T02:59:11.498Z,14.71
2019-02-16T03:00:16.199Z,14.63
2019-02-16T03:01:21.171Z,14.45
2019-02-16T03:02:26.161Z,14.51
2019-02-16T03:03:31.388Z,14.65
2019-02-16T03:04:36.386Z,14.65
2019-02-16T03:05:41.697Z,14.37
2019-02-16T03:06:46.969Z,14.48
2019-02-16T03:07:52.246Z,14.48
2019-02-16T03:09:00.184Z,14.46
2019-02-16T03:10:04.918Z,14.43
2019-02-16T03:11:10.275Z,14.45
2019-02-16T03:12:15.823Z,14.60
2019-02-16T03:13:21.096Z,14.52
2019-02-16T03:14:25.572Z,14.30
2019-02-16T03:15:30.270Z,14.43
2019-02-16T03:16:36.711Z,14.47
2019-02-16T03:17:44.323Z,14.45
2019-02-16T03:18:50.611Z,14.53
2019-02-16T03:20:13.508Z,14.65
2019-02-16T03:21:19.862Z,14.34
2019-02-16T03:22:24.821Z,14.82
2019-02-16T03:23:30.612Z,14.69
2019-02-16T03:24:35.590Z,14.26
2019-02-16T03:25:42.362Z,14.20
2019-02-16T03:27:06.999Z,14.54
2019-02-16T03:28:24.884Z,14.39
2019-02-16T03:30:07.509Z,14.30
2019-02-16T03:32:02.308Z,14.33
2019-02-16T03:34:02.444Z,14.14
2019-02-16T03:35:50.577Z,14.23
2019-02-16T03:37:31.712Z,14.07
2019-02-16T03:39:18.192Z,14.15
2019-02-16T03:40:26.317Z,14.19
2019-02-16T03:41:31.322Z,14.47
2019-02-16T03:42:39.908Z,13.92
2019-02-16T03:43:45.144Z,13.87
2019-02-16T03:44:50.461Z,14.13
2019-02-16T03:45:55.416Z,13.91
2019-02-16T03:47:00.429Z,14.39
2019-02-16T03:48:05.717Z,14.28
2019-02-16T03:49:18.219Z,14.05
2019-02-16T03:50:27.575Z,13.86
2019-02-16T03:51:32.037Z,13.91
2019-02-16T03:52:37.029Z,14.14
2019-02-16T03:53:41.996Z,14.00
2019-02-16T03:54:48.486Z,14.08
2019-02-16T03:55:53.546Z,13.76
2019-02-16T03:56:59.385Z,13.95
2019-02-16T03:58:04.373Z,13.88
2019-02-16T03:59:12.693Z,13.82
2019-02-16T04:00:17.961Z,13.96
2019-02-16T04:01:24.699Z,14.08
2019-02-16T04:02:29.696Z,13.66
2019-02-16T04:03:34.950Z,14.20
2019-02-16T04:04:39.940Z,14.19
2019-02-16T04:05:44.385Z,14.11
2019-02-16T04:06:49.563Z,13.78
2019-02-16T04:07:54.544Z,13.31
2019-02-16T04:08:59.828Z,13.38
2019-02-16T04:10:05.246Z,13.82
2019-02-16T04:11:10.546Z,13.89
2019-02-16T04:12:15.805Z,13.50
2019-02-16T04:13:21.929Z,13.67
2019-02-16T04:14:26.927Z,13.04
2019-02-16T04:15:33.993Z,13.70
2019-02-16T04:16:39.268Z,13.46
2019-02-16T04:17:43.785Z,13.80
2019-02-16T04:18:51.270Z,13.69
2019-02-16T04:19:56.638Z,13.75
2019-02-16T04:21:01.678Z,13.71
2019-02-16T04:22:07.251Z,13.12
2019-02-16T04:23:12.244Z,13.44
2019-02-16T04:24:17.758Z,13.74
2019-02-16T04:25:22.197Z,13.74
2019-02-16T04:26:27.168Z,13.72
2019-02-16T04:27:33.891Z,13.58
2019-02-16T04:28:38.903Z,14.09
2019-02-16T04:29:44.175Z,13.95
2019-02-16T04:30:49.568Z,13.65
2019-02-16T04:31:55.712Z,13.27
2019-02-16T04:33:00.104Z,13.38
2019-02-16T04:34:05.108Z,13.36
2019-02-16T04:35:09.815Z,13.76
2019-02-16T04:36:15.080Z,12.86
2019-02-16T04:37:20.372Z,13.58
2019-02-16T04:38:25.344Z,13.63
2019-02-16T04:39:30.967Z,13.69
2019-02-16T04:40:36.255Z,13.27
2019-02-16T04:41:41.265Z,13.71
2019-02-16T04:42:47.512Z,13.76
2019-02-16T04:43:52.772Z,13.48
2019-02-16T04:44:58.045Z,13.29
2019-02-16T04:46:03.395Z,13.40
2019-02-16T04:47:08.733Z,13.20
2019-02-16T04:48:13.943Z,13.59
2019-02-16T04:49:18.962Z,13.57
2019-02-16T04:50:28.800Z,13.59
2019-02-16T04:51:34.050Z,13.66
2019-02-16T04:52:39.004Z,13.80
2019-02-16T04:53:44.261Z,13.59
2019-02-16T04:54:48.943Z,13.26
2019-02-16T04:55:54.358Z,13.58
2019-02-16T04:57:04.127Z,13.96
2019-02-16T04:58:15.735Z,13.71
2019-02-16T04:59:20.755Z,13.86
2019-02-16T05:00:26.496Z,13.74
2019-02-16T05:01:32.076Z,13.79
2019-02-16T05:02:38.179Z,13.85
2019-02-16T05:03:43.931Z,13.76
2019-02-16T05:04:57.970Z,13.57
2019-02-16T05:06:02.518Z,13.57
2019-02-16T05:07:07.548Z,13.68
2019-02-16T05:08:14.924Z,13.26
2019-02-16T05:09:19.926Z,13.56
2019-02-16T05:10:25.242Z,13.53
2019-02-16T05:11:30.253Z,13.47
2019-02-16T05:12:35.809Z,13.72
2019-02-16T05:13:40.810Z,13.46
2019-02-16T05:14:46.398Z,13.13
2019-02-16T05:15:51.641Z,13.25
2019-02-16T05:16:58.419Z,13.71
2019-02-16T05:18:03.618Z,13.96
2019-02-16T05:19:08.633Z,13.76
2019-02-16T05:20:13.627Z,13.33
2019-02-16T05:21:20.290Z,13.31
2019-02-16T05:22:25.478Z,13.71
2019-02-16T05:23:30.988Z,13.61
2019-02-16T05:24:36.698Z,13.72
2019-02-16T05:25:44.459Z,13.32
2019-02-16T05:26:50.195Z,13.58
2019-02-16T05:27:55.278Z,13.50
2019-02-16T05:29:02.727Z,12.92
2019-02-16T05:30:07.879Z,13.39
2019-02-16T05:31:15.632Z,12.98
2019-02-16T05:32:20.435Z,13.46
2019-02-16T05:33:28.744Z,12.97
2019-02-16T05:34:33.855Z,12.98
2019-02-16T05:35:39.143Z,13.29
2019-02-16T05:36:44.423Z,13.54
2019-02-16T05:37:49.778Z,13.53
2019-02-16T05:38:54.468Z,13.03
2019-02-16T05:39:58.934Z,13.42
2019-02-16T05:41:10.105Z,13.28
2019-02-16T05:42:18.172Z,13.28
2019-02-16T05:43:23.463Z,13.39
2019-02-16T05:44:31.247Z,13.41
2019-02-16T05:45:36.523Z,13.40
2019-02-16T05:46:45.377Z,13.10
2019-02-16T05:47:52.617Z,13.42
2019-02-16T05:49:01.856Z,13.41
2019-02-16T05:50:09.821Z,13.56
2019-02-16T05:51:15.273Z,13.53
2019-02-16T05:52:22.870Z,13.45
2019-02-16T05:53:28.174Z,13.57
2019-02-16T05:54:33.183Z,13.53
2019-02-16T05:55:46.608Z,13.32
2019-02-16T05:56:52.920Z,12.37
2019-02-16T05:57:59.202Z,13.24
2019-02-16T05:59:04.467Z,13.29
2019-02-16T06:00:12.476Z,13.17
2019-02-16T06:01:18.022Z,12.53
2019-02-16T06:02:23.006Z,12.99
2019-02-16T06:03:29.264Z,13.25
2019-02-16T06:04:34.834Z,13.13
2019-02-16T06:05:40.968Z,13.24
2019-02-16T06:06:46.432Z,13.13
2019-02-16T06:07:51.795Z,13.42
2019-02-16T06:08:57.092Z,13.27
2019-02-16T06:10:02.092Z,12.85
2019-02-16T06:11:08.942Z,12.43
2019-02-16T06:12:13.961Z,13.15
2019-02-16T06:13:19.254Z,13.02
2019-02-16T06:14:24.526Z,12.87
2019-02-16T06:15:29.792Z,13.06
2019-02-16T06:16:37.727Z,12.80
2019-02-16T06:17:42.824Z,12.79
2019-02-16T06:18:48.452Z,13.22
2019-02-16T06:19:53.504Z,13.00
2019-02-16T06:20:57.973Z,13.01
2019-02-16T06:22:03.216Z,12.77
2019-02-16T06:23:11.635Z,13.08
2019-02-16T06:24:18.016Z,12.72
2019-02-16T06:25:23.573Z,12.90
2019-02-16T06:26:28.984Z,13.11
2019-02-16T06:27:33.972Z,12.74
2019-02-16T06:28:43.686Z,12.83
2019-02-16T06:29:52.356Z,12.71
2019-02-16T06:30:55.292Z,13.11
2019-02-16T06:32:01.948Z,13.09
2019-02-16T06:33:07.123Z,12.83
2019-02-16T06:34:11.842Z,12.88
2019-02-16T06:35:34.421Z,12.82
2019-02-16T06:36:43.467Z,13.19
2019-02-16T06:37:49.257Z,13.14
2019-02-16T06:39:01.210Z,13.00
2019-02-16T06:40:05.986Z,12.97
2019-02-16T06:41:11.537Z,12.38
2019-02-16T06:42:16.314Z,12.83
2019-02-16T06:43:21.280Z,13.02
2019-02-16T06:44:26.550Z,13.12
2019-02-16T06:45:31.546Z,12.65
2019-02-16T06:46:36.814Z,13.17
2019-02-16T06:47:42.119Z,12.81
2019-02-16T06:48:47.689Z,13.09
2019-02-16T06:49:52.976Z,13.13
2019-02-16T06:50:57.951Z,12.97
2019-02-16T06:52:06.872Z,12.50
2019-02-16T06:53:13.525Z,12.90
2019-02-16T06:54:18.550Z,12.87
2019-02-16T06:55:25.218Z,13.06
2019-02-16T06:56:49.165Z,12.40
2019-02-16T06:57:55.580Z,12.98
2019-02-16T06:59:02.328Z,13.06
2019-02-16T07:00:07.510Z,12.85
2019-02-16T07:01:14.070Z,12.66
2019-02-16T07:02:20.538Z,12.84
2019-02-16T07:03:27.904Z,13.01
2019-02-16T07:04:41.596Z,12.96
2019-02-16T07:05:44.560Z,12.17
2019-02-16T07:06:49.636Z,12.73
2019-02-16T07:07:58.684Z,13.04
2019-02-16T07:09:05.066Z,13.05
2019-02-16T07:10:10.204Z,12.52
2019-02-16T07:11:18.305Z,12.92
2019-02-16T07:12:26.684Z,12.54
2019-02-16T07:13:32.246Z,12.69
2019-02-16T07:14:37.519Z,12.49
2019-02-16T07:15:44.176Z,13.05
2019-02-16T07:17:14.146Z,13.13
2019-02-16T07:18:26.225Z,12.74
2019-02-16T07:19:34.444Z,12.75
2019-02-16T07:20:39.416Z,13.15
2019-02-16T07:21:44.994Z,13.32
2019-02-16T07:22:50.356Z,13.08
2019-02-16T07:23:55.581Z,12.60
2019-02-16T07:25:00.581Z,12.82
2019-02-16T07:26:06.801Z,13.08
2019-02-16T07:27:12.089Z,13.12
2019-02-16T07:28:20.430Z,12.80
2019-02-16T07:29:34.276Z,13.25
2019-02-16T07:30:43.216Z,13.51
2019-02-16T07:31:47.904Z,13.35
2019-02-16T07:32:53.571Z,13.69
2019-02-16T07:33:58.908Z,13.57
2019-02-16T07:35:03.977Z,13.43
2019-02-16T07:36:09.282Z,13.23
2019-02-16T07:37:14.257Z,13.65
2019-02-16T07:38:23.783Z,13.55
2019-02-16T07:39:30.199Z,13.87
2019-02-16T07:40:38.931Z,13.81
2019-02-16T07:41:44.106Z,13.63
2019-02-16T07:42:51.042Z,13.75
2019-02-16T07:44:30.492Z,14.20
2019-02-16T07:46:06.510Z,13.62
2019-02-16T07:47:46.687Z,13.79
2019-02-16T07:48:57.788Z,14.37
2019-02-16T07:50:15.198Z,14.57
2019-02-16T07:51:29.062Z,14.72
2019-02-16T07:52:56.013Z,14.32
2019-02-16T07:54:18.163Z,15.38
2019-02-16T07:55:34.619Z,15.65
2019-02-16T07:56:52.767Z,15.02
2019-02-16T07:58:29.227Z,15.61
2019-02-16T07:59:41.716Z,15.83
2019-02-16T08:00:55.701Z,15.26
2019-02-16T08:02:06.974Z,15.53
2019-02-16T08:03:22.485Z,15.57
2019-02-16T08:04:55.477Z,16.45
2019-02-16T08:06:13.685Z,15.67
2019-02-16T08:07:33.716Z,16.67
2019-02-16T08:08:50.825Z,16.14
2019-02-16T08:10:12.611Z,16.83
2019-02-16T08:11:36.198Z,16.86
2019-02-16T08:13:04.811Z,16.38
2019-02-16T08:14:31.528Z,16.45
2019-02-16T08:15:58.444Z,17.87
2019-02-16T08:17:10.667Z,18.29
2019-02-16T08:18:27.051Z,17.65
2019-02-16T08:19:53.122Z,17.51
2019-02-16T08:21:21.607Z,17.71
2019-02-16T08:22:34.256Z,17.58
2019-02-16T08:24:10.405Z,17.72
2019-02-16T08:25:31.140Z,17.81
2019-02-16T08:26:52.408Z,17.63
2019-02-16T08:28:15.342Z,18.33
2019-02-16T08:29:38.906Z,18.17
2019-02-16T08:30:52.962Z,17.25
2019-02-16T08:32:22.404Z,17.08
2019-02-16T08:33:35.958Z,17.75
2019-02-16T08:34:59.534Z,16.53
2019-02-16T08:36:17.679Z,16.98
2019-02-16T08:37:40.855Z,17.26
2019-02-16T08:39:04.434Z,17.84
2019-02-16T08:40:28.281Z,18.31
2019-02-16T08:41:50.653Z,18.80
2019-02-16T08:43:16.536Z,17.25
2019-02-16T08:44:35.324Z,18.01
2019-02-16T08:45:49.895Z,17.97
2019-02-16T08:47:19.831Z,17.74
2019-02-16T08:48:32.315Z,18.01
2019-02-16T08:49:54.394Z,18.36
2019-02-16T08:51:18.432Z,17.56
2019-02-16T08:52:30.928Z,18.25
2019-02-16T08:53:54.234Z,18.31
2019-02-16T08:55:24.729Z,17.63
2019-02-16T08:56:58.047Z,18.75
2019-02-16T08:58:33.863Z,19.26
2019-02-16T08:59:59.684Z,19.36
2019-02-16T09:01:29.235Z,17.71
2019-02-16T09:02:43.838Z,17.34
2019-02-16T09:04:13.786Z,18.91
2019-02-16T09:05:37.848Z,18.33
2019-02-16T09:06:54.625Z,18.27
2019-02-16T09:08:08.355Z,17.70
2019-02-16T09:09:35.870Z,18.02
2019-02-16T09:10:49.183Z,17.68
2019-02-16T09:12:16.448Z,18.33
2019-02-16T09:13:58.299Z,18.55
2019-02-16T09:15:27.923Z,17.86
2019-02-16T09:17:07.305Z,17.79
2019-02-16T09:18:19.337Z,19.11
2019-02-16T09:19:43.943Z,17.59
2019-02-16T09:21:25.752Z,17.42
2019-02-16T09:22:48.645Z,18.16
2019-02-16T09:24:10.638Z,18.28
2019-02-16T09:25:43.824Z,18.64
2019-02-16T09:27:17.920Z,17.72
2019-02-16T09:28:40.236Z,19.04
2019-02-16T09:30:10.381Z,18.62
2019-02-16T09:31:23.697Z,18.52
2019-02-16T09:32:50.642Z,19.03
2019-02-16T09:34:20.206Z,19.15
2019-02-16T09:35:31.389Z,19.65
2019-02-16T09:36:46.659Z,18.92
2019-02-16T09:38:10.532Z,19.54
2019-02-16T09:39:43.011Z,19.40
2019-02-16T09:40:55.077Z,19.40
2019-02-16T09:42:21.741Z,18.81
2019-02-16T09:43:49.049Z,19.36
2019-02-16T09:45:31.718Z,19.05
2019-02-16T09:47:00.839Z,19.46
2019-02-16T09:48:27.062Z,19.24
2019-02-16T09:49:41.582Z,19.50
2019-02-16T09:51:00.536Z,20.26
2019-02-16T09:52:19.614Z,20.66
2019-02-16T09:53:43.772Z,20.67
2019-02-16T09:55:06.499Z,19.66
2019-02-16T09:56:27.617Z,19.63
2019-02-16T09:57:51.504Z,20.22
2019-02-16T09:59:04.780Z,19.95
2019-02-16T10:00:17.363Z,20.59
2019-02-16T10:01:31.143Z,20.56
2019-02-16T10:02:55.059Z,20.66
2019-02-16T10:04:24.121Z,21.02
2019-02-16T10:06:00.376Z,21.36
2019-02-16T10:07:25.656Z,21.48
2019-02-16T10:08:42.280Z,20.96
2019-02-16T10:10:03.059Z,20.83
2019-02-16T10:11:32.342Z,20.38
2019-02-16T10:12:55.183Z,20.95
2019-02-16T10:14:31.096Z,21.45
2019-02-16T10:15:52.039Z,21.93
2019-02-16T10:17:09.860Z,22.48
2019-02-16T10:18:40.666Z,21.60
2019-02-16T10:19:53.754Z,21.30
2019-02-16T10:21:29.720Z,21.25
2019-02-16T10:22:53.602Z,21.54
2019-02-16T10:24:18.338Z,21.37
2019-02-16T10:25:40.892Z,21.09
2019-02-16T10:27:11.132Z,21.09
2019-02-16T10:28:31.683Z,22.17
2019-02-16T10:30:07.855Z,22.12
2019-02-16T10:31:22.961Z,21.56
2019-02-16T10:32:45.780Z,21.56
2019-02-16T10:34:03.705Z,23.17
2019-02-16T10:35:45.914Z,23.17
2019-02-16T10:37:12.510Z,23.36
2019-02-16T10:38:45.371Z,23.40
2019-02-16T10:40:24.627Z,23.11
2019-02-16T10:41:36.763Z,23.25
2019-02-16T10:42:58.936Z,22.59
2019-02-16T10:44:29.215Z,22.82
2019-02-16T10:45:50.220Z,22.65
2019-02-16T10:47:05.046Z,23.27
2019-02-16T10:48:28.880Z,22.56
2019-02-16T10:49:58.838Z,22.96
2019-02-16T10:51:25.460Z,23.74
2019-02-16T10:52:49.602Z,22.94
2019-02-16T10:54:16.852Z,23.88
2019-02-16T10:55:50.037Z,23.18
2019-02-16T10:57:16.708Z,24.20
2019-02-16T10:58:55.904Z,24.14
2019-02-16T11:00:17.181Z,22.68
2019-02-16T11:01:40.246Z,23.08
2019-02-16T11:03:00.445Z,23.88
2019-02-16T11:04:14.240Z,24.40
2019-02-16T11:05:29.130Z,25.26
2019-02-16T11:06:44.595Z,28.33
2019-02-16T11:08:12.549Z,31.52
2019-02-16T11:09:39.945Z,32.28
2019-02-16T11:10:56.688Z,31.47
2019-02-16T11:12:17.098Z,29.64
2019-02-16T11:13:50.619Z,29.64
2019-02-16T11:15:18.110Z,28.42
2019-02-16T11:16:49.825Z,24.19
2019-02-16T11:18:13.723Z,24.94
2019-02-16T11:19:38.908Z,24.94
2019-02-16T11:21:08.115Z,24.28
2019-02-16T11:22:44.787Z,24.28
2019-02-16T11:24:22.057Z,24.91
2019-02-16T11:25:50.179Z,23.80
2019-02-16T11:27:10.347Z,23.96
2019-02-16T11:28:52.257Z,23.81
2019-02-16T11:30:22.264Z,24.74
2019-02-16T11:31:46.118Z,24.61
2019-02-16T11:32:59.186Z,24.41
2019-02-16T11:34:16.891Z,24.88
2019-02-16T11:35:33.819Z,25.41
2019-02-16T11:36:49.002Z,24.94
2019-02-16T11:38:05.555Z,25.39
2019-02-16T11:39:31.430Z,24.32
2019-02-16T11:40:43.125Z,24.79
2019-02-16T11:42:09.786Z,24.70
2019-02-16T11:43:41.955Z,25.12
2019-02-16T11:45:20.819Z,25.85
2019-02-16T11:46:47.172Z,25.93
2019-02-16T11:48:17.277Z,25.61
2019-02-16T11:49:44.445Z,25.09
2019-02-16T11:50:55.334Z,25.72
2019-02-16T11:52:18.531Z,25.97
2019-02-16T11:53:38.515Z,25.36
2019-02-16T11:54:56.106Z,25.68
2019-02-16T11:56:06.694Z,25.73
2019-02-16T11:57:33.526Z,25.75
2019-02-16T11:59:14.863Z,25.98
2019-02-16T12:00:34.239Z,25.66
2019-02-16T12:02:04.575Z,25.87
2019-02-16T12:03:27.502Z,26.38
2019-02-16T12:04:50.178Z,25.52
2019-02-16T12:06:11.536Z,25.13
2019-02-16T12:07:28.333Z,25.66
2019-02-16T12:08:50.231Z,26.01
2019-02-16T12:10:17.873Z,25.80
2019-02-16T12:11:36.947Z,26.10
2019-02-16T12:12:55.710Z,26.34
2019-02-16T12:14:18.855Z,26.44
2019-02-16T12:15:45.640Z,26.08
2019-02-16T12:17:01.268Z,25.57
2019-02-16T12:18:18.942Z,25.44
2019-02-16T12:19:36.970Z,25.69
2019-02-16T12:21:00.023Z,25.56
2019-02-16T12:22:16.421Z,25.50
2019-02-16T12:23:36.042Z,25.25
2019-02-16T12:25:05.708Z,25.79
2019-02-16T12:26:21.188Z,26.19
2019-02-16T12:27:48.174Z,26.24
2019-02-16T12:29:09.446Z,26.40
2019-02-16T12:30:26.115Z,26.37
2019-02-16T12:31:39.070Z,26.07
2019-02-16T12:32:53.738Z,26.06
2019-02-16T12:34:20.760Z,25.78
2019-02-16T12:35:33.250Z,26.00
2019-02-16T12:37:01.042Z,26.40
2019-02-16T12:38:14.541Z,26.44
2019-02-16T12:39:41.975Z,26.05
2019-02-16T12:40:58.422Z,25.91
2019-02-16T12:42:14.270Z,25.66
2019-02-16T12:43:33.236Z,25.97
2019-02-16T12:44:48.805Z,26.18
2019-02-16T12:46:06.317Z,26.33
2019-02-16T12:47:43.365Z,25.72
2019-02-16T12:49:12.655Z,24.51
2019-02-16T12:50:46.308Z,24.41
2019-02-16T12:52:05.217Z,25.06
2019-02-16T12:53:28.708Z,25.86
2019-02-16T12:54:48.573Z,25.62
2019-02-16T12:56:16.088Z,26.06
2019-02-16T12:57:35.077Z,26.19
2019-02-16T12:59:03.098Z,26.16
2019-02-16T13:00:17.345Z,25.30
2019-02-16T13:01:34.431Z,25.34
2019-02-16T13:03:04.095Z,25.73
2019-02-16T13:04:25.847Z,25.85
2019-02-16T13:05:52.220Z,26.01
2019-02-16T13:07:19.061Z,26.15
2019-02-16T13:08:43.189Z,25.85
2019-02-16T13:10:10.363Z,26.06
2019-02-16T13:11:30.226Z,26.27
2019-02-16T13:12:57.232Z,26.36
2019-02-16T13:14:11.826Z,26.48
2019-02-16T13:15:34.801Z,26.40
2019-02-16T13:16:57.405Z,25.95
2019-02-16T13:18:26.044Z,26.07
2019-02-16T13:19:44.698Z,25.92
2019-02-16T13:20:57.306Z,26.23
2019-02-16T13:22:30.572Z,26.23
2019-02-16T13:23:54.438Z,26.27
2019-02-16T13:25:24.152Z,26.17
2019-02-16T13:26:32.658Z,26.26
2019-02-16T13:27:47.374Z,26.60
2019-02-16T13:29:15.894Z,26.72
2019-02-16T13:30:42.929Z,26.32
2019-02-16T13:32:00.959Z,26.22
2019-02-16T13:33:25.165Z,25.56
2019-02-16T13:34:50.420Z,25.51
2019-02-16T13:36:19.905Z,25.61
2019-02-16T13:37:42.882Z,25.79
2019-02-16T13:39:01.511Z,26.05
2019-02-16T13:40:24.265Z,26.18
2019-02-16T13:41:43.220Z,26.05
2019-02-16T13:43:22.270Z,26.00
2019-02-16T13:44:34.766Z,26.34
2019-02-16T13:46:01.728Z,26.18
2019-02-16T13:47:16.771Z,25.38
2019-02-16T13:48:28.915Z,25.86
2019-02-16T13:49:55.549Z,25.52
2019-02-16T13:51:08.982Z,26.07
2019-02-16T13:52:22.369Z,25.82
2019-02-16T13:53:44.119Z,26.13
2019-02-16T13:55:20.044Z,26.18
2019-02-16T13:56:42.546Z,26.39
2019-02-16T13:58:04.767Z,26.08
2019-02-16T13:59:25.008Z,25.86
2019-02-16T14:00:39.627Z,26.17
2019-02-16T14:02:02.293Z,25.88
2019-02-16T14:03:26.052Z,25.63
2019-02-16T14:04:35.697Z,25.79
2019-02-16T14:05:54.848Z,26.11
2019-02-16T14:07:17.207Z,26.03
2019-02-16T14:08:39.777Z,26.11
2019-02-16T14:10:06.299Z,26.31
2019-02-16T14:11:39.180Z,26.10
2019-02-16T14:13:08.858Z,25.87
2019-02-16T14:14:38.615Z,25.52
2019-02-16T14:16:02.506Z,25.82
2019-02-16T14:17:24.180Z,25.95
2019-02-16T14:18:29.125Z,26.01
2019-02-16T14:19:34.180Z,25.86
2019-02-16T14:20:39.365Z,26.02
2019-02-16T14:21:44.342Z,26.03
2019-02-16T14:22:49.770Z,26.07
2019-02-16T14:23:55.302Z,25.80
2019-02-16T14:25:01.541Z,25.76
2019-02-16T14:26:06.270Z,25.58
2019-02-16T14:27:11.263Z,25.75
2019-02-16T14:28:16.844Z,25.95
2019-02-16T14:29:22.077Z,25.96
2019-02-16T14:30:27.115Z,25.74
2019-02-16T14:31:32.640Z,25.73
2019-02-16T14:32:37.645Z,25.49
2019-02-16T14:33:42.930Z,25.63
2019-02-16T14:34:47.680Z,25.60
2019-02-16T14:35:52.518Z,25.25
2019-02-16T14:36:57.252Z,25.20
2019-02-16T14:38:20.174Z,25.37
2019-02-16T14:39:32.547Z,25.60
2019-02-16T14:40:37.841Z,25.74
2019-02-16T14:41:43.376Z,25.55
2019-02-16T14:42:48.360Z,25.43
2019-02-16T14:43:53.013Z,25.59
2019-02-16T14:44:58.580Z,25.64
2019-02-16T14:46:03.743Z,25.37
2019-02-16T14:47:09.323Z,25.47
2019-02-16T14:48:15.500Z,25.45
2019-02-16T14:49:20.787Z,25.62
2019-02-16T14:50:26.238Z,25.50
2019-02-16T14:51:31.593Z,25.49
2019-02-16T14:52:36.877Z,25.46
2019-02-16T14:53:42.187Z,25.40
2019-02-16T14:54:47.147Z,25.18
2019-02-16T14:55:54.374Z,25.32
2019-02-16T14:56:58.364Z,25.58
2019-02-16T14:58:05.151Z,25.65
2019-02-16T14:59:10.710Z,25.72
2019-02-16T15:00:15.748Z,25.72
2019-02-16T15:01:20.829Z,25.68
2019-02-16T15:02:26.126Z,25.60
2019-02-16T15:03:30.892Z,25.64
2019-02-16T15:04:36.150Z,25.71
2019-02-16T15:05:41.289Z,25.49
2019-02-16T15:06:46.219Z,25.54
2019-02-16T15:07:51.844Z,25.52
2019-02-16T15:08:57.572Z,25.12
2019-02-16T15:10:02.653Z,25.25
2019-02-16T15:11:07.650Z,25.24
2019-02-16T15:12:13.320Z,25.36
2019-02-16T15:13:18.334Z,25.07
2019-02-16T15:14:23.943Z,25.07
2019-02-16T15:15:29.237Z,25.19
2019-02-16T15:16:34.538Z,25.23
2019-02-16T15:17:40.089Z,25.26
2019-02-16T15:18:45.331Z,24.90
2019-02-16T15:19:50.674Z,24.61
2019-02-16T15:20:55.430Z,24.76
2019-02-16T15:22:00.567Z,24.90
2019-02-16T15:23:05.539Z,24.98
2019-02-16T15:24:10.817Z,24.92
2019-02-16T15:25:15.288Z,24.96
2019-02-16T15:26:28.315Z,25.06
2019-02-16T15:27:27.317Z,24.94
2019-02-16T15:28:32.598Z,24.98
2019-02-16T15:29:38.044Z,24.87
2019-02-16T15:30:43.624Z,24.91
2019-02-16T15:31:48.661Z,25.14
2019-02-16T15:32:53.629Z,25.12
2019-02-16T15:33:58.689Z,24.84
2019-02-16T15:35:03.397Z,25.01
2019-02-16T15:36:08.128Z,25.12
2019-02-16T15:37:13.682Z,24.87